createdAt,value
2022-11-23T05:27:25.467Z,8.70
2022-11-23T05:32:28.477Z,8.70
2022-11-23T05:37:32.384Z,8.70
2022-11-23T05:42:37.531Z,8.70
2022-11-23T05:47:57.826Z,8.70
2022-11-23T05:53:33.208Z,8.60
2022-11-23T05:58:48.637Z,8.40
2022-11-23T06:03:54.114Z,8.30
2022-11-23T06:08:56.925Z,8.30
2022-11-23T06:13:59.748Z,8.10
2022-11-23T06:19:02.274Z,8.00
2022-11-23T06:24:05.435Z,8.00
2022-11-23T06:29:08.425Z,8.10
2022-11-23T07:46:45.158Z,9.80
2022-11-23T07:51:54.257Z,10.90
2022-11-23T07:56:57.746Z,12.10
2022-11-23T08:02:02.372Z,12.90
2022-11-23T08:07:06.307Z,13.60
2022-11-23T08:12:09.037Z,14.50
2022-11-23T08:17:12.164Z,15.30
2022-11-23T08:22:15.946Z,16.00
2022-11-23T08:27:18.337Z,16.30
2022-11-23T08:32:20.238Z,16.70
2022-11-23T08:37:22.159Z,17.10
2022-11-23T08:42:23.974Z,17.80
2022-11-23T08:47:26.997Z,18.30
2022-11-23T08:52:28.894Z,18.60
2022-11-23T08:57:30.772Z,19.00
2022-11-23T09:02:32.886Z,19.10
2022-11-23T09:07:37.474Z,19.20
2022-11-23T09:12:39.454Z,20.00
2022-11-23T09:17:41.297Z,19.90
2022-11-23T09:22:44.112Z,19.70
2022-11-23T09:27:46.152Z,19.90
2022-11-23T09:32:48.021Z,19.90
2022-11-23T09:37:58.458Z,19.60
2022-11-23T09:43:19.009Z,19.50
2022-11-23T09:48:38.759Z,19.80
2022-11-23T09:53:46.842Z,19.80
2022-11-23T09:58:56.265Z,19.70
2022-11-23T10:03:58.780Z,19.90
2022-11-23T10:09:38.573Z,19.90
2022-11-23T10:14:59.477Z,20.00
2022-11-23T10:20:28.828Z,19.70
2022-11-23T10:25:39.374Z,19.80
2022-11-23T10:30:42.100Z,19.80
2022-11-23T10:35:43.945Z,20.00
2022-11-23T10:41:08.820Z,19.70
2022-11-23T10:46:33.594Z,19.50
2022-11-23T10:51:35.956Z,19.50
2022-11-23T10:56:48.074Z,19.30
2022-11-23T11:02:01.713Z,18.80
2022-11-23T11:07:24.104Z,19.30
2022-11-23T11:12:28.700Z,19.30
2022-11-23T11:17:33.581Z,19.30
2022-11-23T11:22:43.305Z,19.00
2022-11-23T11:27:52.160Z,19.20
2022-11-23T11:33:05.374Z,19.10
2022-11-23T11:38:23.933Z,18.80
2022-11-23T11:43:39.877Z,18.50
2022-11-23T11:48:48.196Z,18.60
2022-11-23T11:54:26.978Z,18.60
2022-11-23T11:59:42.640Z,18.50
2022-11-23T12:04:59.788Z,18.80
2022-11-23T12:10:27.315Z,18.80
2022-11-23T12:15:49.490Z,18.60
2022-11-23T12:20:55.238Z,18.60
2022-11-23T12:26:03.849Z,18.70
2022-11-23T12:31:30.242Z,18.40
2022-11-23T12:36:57.687Z,18.20
2022-11-23T12:42:12.370Z,18.30
2022-11-23T12:47:50.538Z,18.10
2022-11-23T12:52:58.308Z,18.10
2022-11-23T12:58:13.738Z,18.00
2022-11-23T13:03:45.943Z,18.30
2022-11-23T13:09:17.272Z,18.10
2022-11-23T13:14:37.225Z,18.00
2022-11-23T13:20:12.825Z,18.00
2022-11-23T13:25:28.975Z,18.00
2022-11-23T13:31:07.330Z,18.10
2022-11-23T13:36:08.726Z,18.00
2022-11-23T13:41:34.187Z,17.90
2022-11-23T13:46:37.579Z,17.90
2022-11-23T13:51:39.702Z,17.80
2022-11-23T13:56:43.257Z,17.70
2022-11-23T14:02:26.622Z,17.60
2022-11-23T14:07:43.373Z,17.30
2022-11-23T14:12:54.040Z,17.20
2022-11-23T14:18:30.789Z,17.10
2022-11-23T14:23:44.836Z,16.90
2022-11-23T14:29:14.337Z,16.70
2022-11-23T14:34:51.436Z,16.40
2022-11-23T14:40:11.719Z,16.20
2022-11-23T14:45:15.915Z,15.90
2022-11-23T14:50:26.747Z,15.80
2022-11-23T14:55:30.733Z,15.70
2022-11-23T15:00:53.594Z,15.60
2022-11-23T15:06:17.838Z,15.60
2022-11-23T15:11:23.498Z,15.40
2022-11-23T15:16:26.332Z,15.40
2022-11-23T15:21:29.286Z,15.40
2022-11-23T15:26:47.837Z,15.30
2022-11-23T15:32:14.327Z,15.20
2022-11-23T15:37:12.851Z,15.20
2022-11-23T15:42:18.400Z,15.20
2022-11-23T15:47:27.411Z,15.10
2022-11-23T15:52:34.694Z,15.10
2022-11-23T15:57:38.728Z,15.10
2022-11-23T16:02:40.648Z,15.10
2022-11-23T16:08:02.539Z,15.10
2022-11-23T16:13:08.750Z,15.10
2022-11-23T16:18:13.606Z,15.00
2022-11-23T16:23:20.798Z,14.90
2022-11-23T16:28:30.799Z,14.90
2022-11-23T16:33:34.071Z,14.70
2022-11-23T16:38:35.880Z,14.60
2022-11-23T16:43:37.817Z,14.40
2022-11-23T16:48:42.158Z,14.30
2022-11-23T16:59:15.518Z,14.10
2022-11-23T17:04:17.469Z,14.00
2022-11-23T17:09:19.406Z,13.70
2022-11-23T17:14:28.052Z,13.30
2022-11-23T17:19:31.786Z,13.10
2022-11-23T17:24:34.185Z,12.80
2022-11-23T17:29:41.505Z,12.60
2022-11-23T17:34:43.905Z,12.40
2022-11-23T17:39:46.686Z,12.10
2022-11-23T17:44:48.539Z,11.90
2022-11-23T17:49:50.429Z,11.80
2022-11-23T17:54:52.401Z,11.80
2022-11-23T17:59:55.133Z,11.70
2022-11-23T18:04:58.547Z,11.60
2022-11-23T18:10:00.355Z,11.60
2022-11-23T18:15:02.170Z,11.60
2022-11-23T18:20:04.805Z,11.80
2022-11-23T18:25:07.045Z,11.60
2022-11-23T18:30:10.781Z,11.30
2022-11-23T18:35:12.616Z,11.20
2022-11-23T18:40:15.330Z,11.40
2022-11-23T18:45:17.367Z,11.50
2022-11-23T18:50:19.190Z,11.60
2022-11-23T18:55:20.999Z,11.60
2022-11-23T19:00:23.538Z,11.70
2022-11-23T19:05:26.808Z,11.50
2022-11-23T19:10:28.701Z,11.40
2022-11-23T19:15:30.764Z,11.30
2022-11-23T19:20:32.840Z,11.10
2022-11-23T19:25:34.644Z,10.90
2022-11-23T19:30:36.476Z,10.90
2022-11-23T19:35:38.375Z,10.60
2022-11-23T19:40:40.192Z,10.60
2022-11-23T19:45:41.993Z,10.40
2022-11-23T19:50:43.861Z,10.50
2022-11-23T19:55:45.675Z,10.50
2022-11-23T20:00:47.541Z,10.50
2022-11-23T20:06:00.796Z,10.40
2022-11-23T20:11:13.621Z,10.60
2022-11-23T20:16:18.605Z,10.60
2022-11-23T20:21:20.855Z,10.70
2022-11-23T20:26:22.774Z,10.70
2022-11-23T20:31:26.972Z,10.80
2022-11-23T20:36:31.915Z,10.80
2022-11-23T20:41:35.840Z,10.80
2022-11-23T20:47:00.659Z,10.80
2022-11-23T20:52:00.538Z,10.90
2022-11-23T20:57:02.700Z,10.80
2022-11-23T21:02:04.691Z,10.80
2022-11-23T21:07:06.930Z,10.80
2022-11-23T21:12:28.089Z,10.80
2022-11-23T21:17:30.482Z,10.70
2022-11-23T21:22:32.332Z,10.80
2022-11-23T21:27:34.533Z,10.80
2022-11-23T21:32:49.729Z,10.90
2022-11-23T21:37:51.548Z,10.80
2022-11-23T21:42:53.575Z,10.90
2022-11-23T21:47:55.534Z,10.90
2022-11-23T21:52:57.428Z,10.90
2022-11-23T21:57:59.329Z,10.90
2022-11-23T22:03:01.587Z,10.80
2022-11-23T22:08:28.218Z,10.90
2022-11-23T22:13:26.277Z,10.90
2022-11-23T22:18:29.483Z,10.90
2022-11-23T22:23:31.335Z,11.00
2022-11-23T22:28:38.226Z,10.90
2022-11-23T22:33:41.322Z,10.90
2022-11-23T22:38:43.812Z,10.90
2022-11-23T22:43:45.680Z,10.90
2022-11-23T22:48:49.565Z,11.00
2022-11-23T22:53:58.949Z,11.00
2022-11-23T22:59:00.804Z,11.00
2022-11-23T23:04:03.147Z,10.90
2022-11-23T23:09:06.939Z,10.90
2022-11-23T23:14:08.822Z,10.90
2022-11-23T23:19:11.643Z,10.90
2022-11-23T23:24:13.584Z,10.90
2022-11-23T23:29:15.378Z,10.90
2022-11-23T23:34:17.853Z,11.00
2022-11-23T23:39:19.835Z,10.90
2022-11-23T23:50:55.969Z,10.90
2022-11-23T23:55:59.508Z,11.00
